createdAt,value
2022-10-07T00:00:46.946Z,4.30
2022-10-07T00:06:02.915Z,4.23
2022-10-07T00:11:13.602Z,4.60
2022-10-07T00:16:21.076Z,3.83
2022-10-07T00:21:28.666Z,4.60
2022-10-07T00:26:37.787Z,4.70
2022-10-07T00:31:42.621Z,4.83
2022-10-07T00:36:50.474Z,4.30
2022-10-07T00:41:57.930Z,4.20
2022-10-07T00:47:05.859Z,4.27
2022-10-07T00:52:11.235Z,4.57
2022-10-07T00:57:18.845Z,4.00
2022-10-07T01:02:24.901Z,5.37
2022-10-07T01:07:31.079Z,4.33
2022-10-07T01:12:49.872Z,3.80
2022-10-07T01:18:02.048Z,3.87
2022-10-07T01:23:21.874Z,4.30
2022-10-07T01:28:34.972Z,3.70
2022-10-07T01:33:44.418Z,4.20
2022-10-07T01:38:54.060Z,5.00
2022-10-07T01:44:03.070Z,3.73
2022-10-07T01:49:08.281Z,3.93
2022-10-07T01:54:31.310Z,4.07
2022-10-07T01:59:56.279Z,3.50
2022-10-07T02:05:11.470Z,3.33
2022-10-07T02:10:24.306Z,4.30
2022-10-07T02:15:39.690Z,3.53
2022-10-07T02:20:48.792Z,3.70
2022-10-07T02:25:56.616Z,3.50
2022-10-07T02:31:07.126Z,4.00
2022-10-07T02:36:16.881Z,4.07
2022-10-07T02:41:35.443Z,3.30
2022-10-07T02:46:53.119Z,4.00
2022-10-07T02:52:02.230Z,4.70
2022-10-07T02:57:10.840Z,4.70
2022-10-07T03:02:24.350Z,3.80
2022-10-07T03:07:31.802Z,4.33
2022-10-07T03:12:37.857Z,3.93
2022-10-07T03:17:46.068Z,4.63
2022-10-07T03:22:51.513Z,4.63
2022-10-07T03:27:57.920Z,3.93
2022-10-07T03:33:05.633Z,3.60
2022-10-07T03:38:11.160Z,4.83
2022-10-07T03:43:19.604Z,4.57
2022-10-07T03:48:27.782Z,4.37
2022-10-07T03:53:33.613Z,5.03
2022-10-07T03:58:42.221Z,4.50
2022-10-07T04:03:59.857Z,4.27
2022-10-07T04:09:06.500Z,6.33
2022-10-07T04:14:14.737Z,4.67
2022-10-07T04:19:22.619Z,4.17
2022-10-07T04:24:27.749Z,4.03
2022-10-07T04:29:39.160Z,3.87
2022-10-07T04:34:47.844Z,5.03
2022-10-07T04:40:00.655Z,4.73
2022-10-07T04:45:11.656Z,7.00
2022-10-07T04:50:20.383Z,4.93
2022-10-07T04:55:26.699Z,5.10
2022-10-07T05:00:31.978Z,6.30
2022-10-07T05:05:40.632Z,6.17
2022-10-07T05:10:46.419Z,5.20
2022-10-07T05:15:56.418Z,6.20
2022-10-07T05:21:07.701Z,6.13
2022-10-07T05:26:16.849Z,5.83
2022-10-07T05:31:27.938Z,6.37
2022-10-07T05:36:41.959Z,7.00
2022-10-07T05:41:49.037Z,6.53
2022-10-07T05:47:02.950Z,7.23
2022-10-07T05:52:12.461Z,7.30
2022-10-07T05:57:20.090Z,6.83
2022-10-07T06:02:26.321Z,6.67
2022-10-07T06:07:34.148Z,7.60
2022-10-07T06:12:53.701Z,7.93
2022-10-07T06:17:58.668Z,7.27
2022-10-07T06:23:07.401Z,8.53
2022-10-07T06:28:14.445Z,8.43
2022-10-07T06:33:20.502Z,8.07
2022-10-07T06:38:29.300Z,7.77
2022-10-07T06:43:35.954Z,7.20
2022-10-07T06:48:46.159Z,4.47
2022-10-07T06:54:00.452Z,4.83
2022-10-07T06:59:05.811Z,4.13
2022-10-07T07:04:22.121Z,3.63
2022-10-07T07:09:37.806Z,4.70
2022-10-07T07:14:45.372Z,3.93
2022-10-07T07:19:55.615Z,3.10
2022-10-07T07:25:05.991Z,2.97
2022-10-07T07:30:13.419Z,2.67
2022-10-07T07:35:19.597Z,3.50
2022-10-07T07:40:27.156Z,3.60
2022-10-07T07:45:33.287Z,3.53
2022-10-07T07:50:40.398Z,3.47
2022-10-07T07:55:58.306Z,3.10
2022-10-07T08:01:07.278Z,2.90
2022-10-07T08:06:14.709Z,2.90
2022-10-07T08:11:24.252Z,3.20
2022-10-07T08:16:32.655Z,2.80
2022-10-07T08:21:39.579Z,2.90
2022-10-07T08:26:50.701Z,2.73
2022-10-07T08:31:56.258Z,2.77
2022-10-07T08:37:01.270Z,2.57
2022-10-07T08:42:16.090Z,3.17
2022-10-07T08:47:30.515Z,2.77
2022-10-07T08:52:45.765Z,2.40
2022-10-07T08:58:19.792Z,3.23
2022-10-07T09:03:37.816Z,2.93
2022-10-07T09:08:46.820Z,3.07
2022-10-07T09:14:02.685Z,2.77
2022-10-07T09:19:18.769Z,2.60
2022-10-07T09:24:28.337Z,2.70
2022-10-07T09:29:35.716Z,2.47
2022-10-07T09:34:40.714Z,1.90
2022-10-07T09:39:47.830Z,2.35
2022-10-07T09:44:57.843Z,2.10
2022-10-07T09:50:02.659Z,2.47
2022-10-07T09:55:32.601Z,2.75
2022-10-07T10:00:47.904Z,2.53
2022-10-07T10:05:59.503Z,2.25
2022-10-07T10:11:06.429Z,2.25
2022-10-07T10:16:40.715Z,2.15
2022-10-07T10:21:46.302Z,2.08
2022-10-07T10:26:58.746Z,2.78
2022-10-07T10:32:31.072Z,1.98
2022-10-07T10:37:58.303Z,2.08
2022-10-07T10:43:20.442Z,2.63
2022-10-07T10:48:36.241Z,1.83
2022-10-07T10:53:51.507Z,2.42
2022-10-07T10:59:11.584Z,2.35
2022-10-07T11:04:38.500Z,2.30
2022-10-07T11:09:47.850Z,2.67
2022-10-07T11:14:59.904Z,2.45
2022-10-07T11:20:21.575Z,1.90
2022-10-07T11:25:37.103Z,1.90
2022-10-07T11:30:50.613Z,1.70
2022-10-07T11:36:02.419Z,1.70
2022-10-07T11:41:13.457Z,1.40
2022-10-07T11:46:23.787Z,2.08
2022-10-07T11:51:35.448Z,1.53
2022-10-07T11:56:49.278Z,2.13
2022-10-07T12:01:55.330Z,2.40
2022-10-07T12:07:31.573Z,2.17
2022-10-07T12:12:55.571Z,2.13
2022-10-07T12:18:28.774Z,1.80
2022-10-07T12:23:47.503Z,1.70
2022-10-07T12:29:02.422Z,2.50
2022-10-07T12:34:13.491Z,2.07
2022-10-07T12:39:37.357Z,2.10
2022-10-07T12:44:51.375Z,2.00
2022-10-07T12:49:59.391Z,2.23
2022-10-07T12:55:11.101Z,2.20
2022-10-07T13:00:20.556Z,1.83
2022-10-07T13:05:55.427Z,2.00
2022-10-07T13:11:34.039Z,2.10
2022-10-07T13:16:49.308Z,2.10
2022-10-07T13:22:02.409Z,2.10
2022-10-07T13:27:10.973Z,2.30
2022-10-07T13:32:21.043Z,2.23
2022-10-07T13:37:32.232Z,2.47
2022-10-07T13:42:37.359Z,2.10
2022-10-07T13:47:48.431Z,2.03
2022-10-07T13:52:56.282Z,2.23
2022-10-07T13:58:03.303Z,2.50
2022-10-07T14:03:19.381Z,2.10
2022-10-07T14:08:28.157Z,2.13
2022-10-07T14:13:34.741Z,1.97
2022-10-07T14:18:46.955Z,2.00
2022-10-07T14:23:52.395Z,2.33
2022-10-07T14:28:57.108Z,2.97
2022-10-07T14:34:27.549Z,2.20
2022-10-07T14:39:38.344Z,1.83
2022-10-07T14:44:44.340Z,2.43
2022-10-07T14:49:52.850Z,2.17
2022-10-07T14:54:58.583Z,2.40
2022-10-07T15:00:04.356Z,3.13
2022-10-07T15:05:14.199Z,2.27
2022-10-07T15:10:26.297Z,2.70
2022-10-07T15:15:31.133Z,2.30
2022-10-07T15:20:38.916Z,2.77
2022-10-07T15:25:44.146Z,2.63
2022-10-07T15:30:49.793Z,3.50
2022-10-07T15:35:58.747Z,4.07
2022-10-07T15:41:04.499Z,4.13
2022-10-07T15:46:09.497Z,3.57
2022-10-07T15:51:17.618Z,3.30
2022-10-07T15:56:25.584Z,2.93
2022-10-07T16:01:32.190Z,2.67
2022-10-07T16:06:39.871Z,3.37
2022-10-07T16:11:45.821Z,3.60
2022-10-07T16:16:50.875Z,4.03
2022-10-07T16:21:58.675Z,3.27
2022-10-07T16:27:03.523Z,2.97
2022-10-07T16:32:10.945Z,4.03
2022-10-07T16:37:19.266Z,3.40
2022-10-07T16:42:24.301Z,2.97
2022-10-07T16:47:29.134Z,2.90
2022-10-07T16:52:36.910Z,4.60
2022-10-07T16:57:41.731Z,5.63
2022-10-07T17:02:46.585Z,5.87
2022-10-07T17:07:54.220Z,9.53
2022-10-07T17:13:00.727Z,9.90
2022-10-07T17:18:05.622Z,6.83
2022-10-07T17:23:13.083Z,8.03
2022-10-07T17:28:18.393Z,6.37
2022-10-07T17:33:23.450Z,6.60
2022-10-07T17:38:35.735Z,21.20
2022-10-07T17:43:42.163Z,27.77
2022-10-07T17:48:48.565Z,11.47
2022-10-07T17:53:56.495Z,12.80
2022-10-07T17:59:02.334Z,9.73
2022-10-07T18:04:09.149Z,17.83
2022-10-07T18:09:22.209Z,9.63
2022-10-07T18:14:39.453Z,12.07
2022-10-07T18:19:45.280Z,10.13
2022-10-07T18:24:57.229Z,10.87
2022-10-07T18:30:02.299Z,16.77
2022-10-07T18:35:08.111Z,11.70
2022-10-07T18:40:20.678Z,10.30
2022-10-07T18:45:25.681Z,9.30
2022-10-07T18:50:33.562Z,10.77
2022-10-07T18:55:44.603Z,10.43
2022-10-07T19:00:49.601Z,10.43
2022-10-07T19:05:54.543Z,10.50
2022-10-07T19:11:05.684Z,11.40
2022-10-07T19:16:10.953Z,13.17
2022-10-07T19:21:18.420Z,11.70
2022-10-07T19:26:29.937Z,11.17
2022-10-07T19:31:40.298Z,10.80
2022-10-07T19:36:47.227Z,10.83
2022-10-07T19:41:59.231Z,13.50
2022-10-07T19:47:04.271Z,13.43
2022-10-07T19:52:09.290Z,13.50
2022-10-07T19:57:16.752Z,12.97
2022-10-07T20:02:21.730Z,13.77
2022-10-07T20:07:26.768Z,13.30
2022-10-07T20:12:34.353Z,15.60
2022-10-07T20:17:39.565Z,13.60
2022-10-07T20:22:49.265Z,18.30
2022-10-07T20:27:56.930Z,18.37
2022-10-07T20:33:02.603Z,15.90
2022-10-07T20:38:07.627Z,13.33
2022-10-07T20:43:19.989Z,13.47
2022-10-07T20:48:25.304Z,17.50
2022-10-07T20:53:30.111Z,15.47
2022-10-07T20:58:37.609Z,14.53
2022-10-07T21:03:43.381Z,13.83
2022-10-07T21:08:48.511Z,13.83
2022-10-07T21:13:56.192Z,12.33
2022-10-07T21:19:01.964Z,12.33
2022-10-07T21:24:07.357Z,14.60
2022-10-07T21:29:16.174Z,12.80
2022-10-07T21:34:21.246Z,14.37
2022-10-07T21:39:26.661Z,13.73
2022-10-07T21:44:35.843Z,14.00
2022-10-07T21:49:41.220Z,13.90
2022-10-07T21:54:46.049Z,13.77
2022-10-07T21:59:53.957Z,14.67
2022-10-07T22:04:59.023Z,13.60
2022-10-07T22:10:04.208Z,13.80
2022-10-07T22:15:12.860Z,14.57
2022-10-07T22:20:17.953Z,12.87
2022-10-07T22:25:23.145Z,13.63
2022-10-07T22:30:31.046Z,13.80
2022-10-07T22:35:36.339Z,13.53
2022-10-07T22:40:41.555Z,13.43
2022-10-07T22:45:57.816Z,12.80
2022-10-07T22:51:07.492Z,12.97
2022-10-07T22:56:14.873Z,13.93
2022-10-07T23:01:23.680Z,13.67
2022-10-07T23:06:28.417Z,13.77
2022-10-07T23:11:33.821Z,14.50
2022-10-07T23:16:42.011Z,13.23
2022-10-07T23:21:47.837Z,13.07
2022-10-07T23:26:52.657Z,13.73
2022-10-07T23:32:00.032Z,13.70
2022-10-07T23:37:05.299Z,14.23
2022-10-07T23:42:10.344Z,14.00
2022-10-07T23:47:18.232Z,14.87
2022-10-07T23:52:23.191Z,14.50
2022-10-07T23:57:28.070Z,14.63
